Time;durP1;ratioP1;P1;durP2;ratioP2;P2;SDS_P1;SDS_P2;PMS_P1;PMS_P2;Temp;Humidity;BMP_temperature;BMP_pressure;BME280_temperature;BME280_humidity;BME280_pressure;Samples;Min_cycle;Max_cycle;Signal;HPM_P1;HPM_P2
2022/09/15 00:02:15;;;;;;;33.55;24.00;;;12.30;99.90;;;;;;5013076;28;20026;-85
2022/09/15 00:04:41;;;;;;;34.92;24.55;;;12.20;99.90;;;;;;5017396;28;20040;-85
2022/09/15 00:07:07;;;;;;;37.78;26.02;;;12.30;99.90;;;;;;5005608;28;20082;-85
2022/09/15 00:09:33;;;;;;;40.67;26.73;;;12.30;99.90;;;;;;5019277;28;20404;-88
2022/09/15 00:11:58;;;;;;;39.20;25.80;;;12.30;99.90;;;;;;5018101;28;20018;-89
2022/09/15 00:14:24;;;;;;;40.65;27.00;;;12.40;99.90;;;;;;5000504;28;20780;-88
2022/09/15 00:16:50;;;;;;;37.95;25.13;;;12.40;99.90;;;;;;4999332;28;20407;-88
2022/09/15 00:19:16;;;;;;;39.85;25.67;;;12.30;99.90;;;;;;5016455;28;20130;-90
2022/09/15 00:21:42;;;;;;;41.78;27.33;;;12.30;99.90;;;;;;4999245;28;20018;-89
2022/09/15 00:24:08;;;;;;;50.03;27.65;;;12.30;99.90;;;;;;5017306;28;20024;-89
2022/09/15 00:26:35;;;;;;;39.25;28.85;;;12.40;99.90;;;;;;5021216;28;20502;-88
2022/09/15 00:29:01;;;;;;;40.67;26.25;;;12.30;99.90;;;;;;5017533;28;20022;-88
2022/09/15 00:31:29;;;;;;;49.55;30.38;;;12.30;99.90;;;;;;5016255;28;20472;-89
2022/09/15 00:33:57;;;;;;;44.75;29.00;;;12.30;99.90;;;;;;4999320;28;20026;-89
2022/09/15 00:36:25;;;;;;;49.65;30.33;;;12.30;99.90;;;;;;5001187;28;20503;-88
2022/09/15 00:38:51;;;;;;;44.97;30.17;;;12.30;99.90;;;;;;5002937;28;20030;-88
2022/09/15 00:41:19;;;;;;;41.28;28.65;;;12.30;99.90;;;;;;5019806;28;20025;-89
2022/09/15 00:44:03;;;;;;;45.88;30.15;;;12.40;99.90;;;;;;5012932;28;20017;-88
2022/09/15 00:46:38;;;;;;;47.67;31.35;;;12.40;99.90;;;;;;5016813;28;20069;-88
2022/09/15 00:49:21;;;;;;;44.90;30.10;;;12.40;99.90;;;;;;5017166;28;20025;-88
2022/09/15 00:52:06;;;;;;;45.08;28.73;;;12.50;99.90;;;;;;5028698;28;20014;-88
2022/09/15 00:54:32;;;;;;;45.13;30.50;;;12.50;99.90;;;;;;5032583;28;20040;-87
2022/09/15 00:57:01;;;;;;;49.95;30.58;;;12.50;99.90;;;;;;5036810;28;20010;-88
2022/09/15 00:59:30;;;;;;;42.58;30.77;;;12.60;99.90;;;;;;5030069;28;20053;-88
2022/09/15 01:02:21;;;;;;;46.72;28.83;;;12.50;99.90;;;;;;5019075;28;20037;-87
2022/09/15 01:04:49;;;;;;;46.78;28.30;;;12.60;99.90;;;;;;5012240;28;20033;-87
2022/09/15 01:07:20;;;;;;;41.47;28.35;;;12.60;99.90;;;;;;5018949;28;20084;-86
2022/09/15 01:09:56;;;;;;;40.72;27.73;;;12.50;99.90;;;;;;5018813;28;20049;-88
2022/09/15 01:12:24;;;;;;;45.58;27.27;;;12.50;99.90;;;;;;5002936;28;20025;-87
2022/09/15 01:14:49;;;;;;;;;;;12.50;99.90;;;;;;5000076;28;20026;-87
2022/09/15 01:17:52;;;;;;;38.03;25.67;;;12.50;99.90;;;;;;5016958;28;19912;-87
2022/09/15 01:20:37;;;;;;;37.65;24.95;;;12.50;99.90;;;;;;5011777;28;20061;-87
2022/09/15 01:23:25;;;;;;;36.10;25.50;;;12.50;99.90;;;;;;5020625;28;20024;-88
2022/09/15 01:26:02;;;;;;;37.40;25.00;;;12.50;99.90;;;;;;5019160;28;20041;-89
2022/09/15 01:28:48;;;;;;;38.97;25.25;;;12.50;99.90;;;;;;5000120;28;20121;-88
2022/09/15 01:34:40;;;;;;;42.45;25.42;;;12.50;99.90;;;;;;4994145;28;20479;-88
2022/09/15 01:37:13;;;;;;;42.05;24.92;;;12.50;99.90;;;;;;5015442;28;20034;-87
2022/09/15 01:39:42;;;;;;;40.10;25.52;;;12.50;99.90;;;;;;4998005;28;20032;-87
2022/09/15 01:42:14;;;;;;;34.90;25.10;;;12.50;99.90;;;;;;4997767;28;20018;-89
2022/09/15 01:44:54;;;;;;;33.75;24.52;;;12.60;99.90;;;;;;5015498;28;20499;-86
2022/09/15 01:47:21;;;;;;;31.95;23.00;;;12.50;99.90;;;;;;5019616;28;20018;-86
2022/09/15 01:49:58;;;;;;;30.80;22.48;;;12.60;99.90;;;;;;5021393;28;20048;-87
2022/09/15 01:52:24;;;;;;;32.45;22.88;;;12.60;99.90;;;;;;5000461;28;20049;-87
2022/09/15 01:54:55;;;;;;;28.02;19.63;;;12.50;99.90;;;;;;4999313;28;20124;-88
2022/09/15 01:57:21;;;;;;;33.25;21.70;;;12.50;99.90;;;;;;5016034;28;20046;-87
2022/09/15 01:59:53;;;;;;;30.63;21.40;;;12.50;99.90;;;;;;5002522;28;20029;-86
2022/09/15 02:02:28;;;;;;;34.30;23.70;;;12.50;99.90;;;;;;5032409;28;20041;-85
2022/09/15 02:05:02;;;;;;;30.52;20.90;;;12.50;99.90;;;;;;5025971;28;20034;-87
2022/09/15 02:07:35;;;;;;;31.70;22.00;;;12.50;99.90;;;;;;5006471;28;20049;-86
2022/09/15 02:10:13;;;;;;;34.08;22.38;;;12.50;99.90;;;;;;4996439;28;20029;-86
2022/09/15 02:12:54;;;;;;;31.88;20.88;;;12.50;99.90;;;;;;5025713;28;20045;-89
2022/09/15 02:15:36;;;;;;;26.80;19.52;;;12.50;99.90;;;;;;4996701;28;20033;-89
2022/09/15 02:18:07;;;;;;;28.92;20.23;;;12.50;99.90;;;;;;5011181;28;20045;-90
2022/09/15 02:20:44;;;;;;;26.48;19.88;;;12.40;99.90;;;;;;4997032;28;20057;-89
2022/09/15 02:23:39;;;;;;;29.80;20.83;;;12.50;99.90;;;;;;4998789;28;20561;-89
2022/09/15 02:26:10;;;;;;;25.92;20.50;;;12.50;99.90;;;;;;5012455;28;20547;-89
2022/09/15 02:28:38;;;;;;;35.42;22.13;;;12.50;99.90;;;;;;5014962;28;20105;-88
2022/09/15 02:31:08;;;;;;;34.88;23.05;;;12.50;99.90;;;;;;4997419;28;20025;-89
2022/09/15 02:33:43;;;;;;;31.77;22.88;;;12.50;99.90;;;;;;5026640;28;20020;-87
2022/09/15 02:36:12;;;;;;;34.05;23.77;;;12.50;99.90;;;;;;5026947;28;20033;-89
2022/09/15 02:38:44;;;;;;;34.85;23.50;;;12.50;99.90;;;;;;5001294;28;20029;-90
2022/09/15 02:41:12;;;;;;;34.15;25.02;;;12.50;99.90;;;;;;5025459;28;20040;-90
2022/09/15 02:43:48;;;;;;;33.95;23.92;;;12.50;99.90;;;;;;5023553;28;20046;-89
2022/09/15 02:46:15;;;;;;;32.25;23.35;;;12.50;99.90;;;;;;4997990;28;20030;-89
2022/09/15 02:48:41;;;;;;;28.58;20.38;;;12.50;99.90;;;;;;5015679;28;20026;-90
2022/09/15 02:51:07;;;;;;;29.55;21.73;;;12.50;99.90;;;;;;5026109;28;20133;-89
2022/09/15 02:53:33;;;;;;;33.03;23.33;;;12.40;99.90;;;;;;5012683;28;20097;-89
2022/09/15 02:55:59;;;;;;;32.90;24.15;;;12.40;99.90;;;;;;5019224;28;20061;-90
2022/09/15 02:58:24;;;;;;;35.25;23.33;;;12.40;99.90;;;;;;5014389;28;20033;-90
2022/09/15 03:00:52;;;;;;;31.42;23.52;;;12.50;99.90;;;;;;5014396;28;20040;-90
2022/09/15 03:03:20;;;;;;;30.75;22.20;;;12.50;99.90;;;;;;5014291;28;20148;-90
2022/09/15 03:05:46;;;;;;;34.70;24.70;;;12.50;99.90;;;;;;5014460;28;20037;-90
2022/09/15 03:08:13;;;;;;;28.45;22.75;;;12.60;99.90;;;;;;5014840;28;20021;-90
2022/09/15 03:10:38;;;;;;;30.48;22.77;;;12.50;99.90;;;;;;5009698;28;20120;-89
2022/09/15 03:13:04;;;;;;;32.80;23.67;;;12.50;99.90;;;;;;5009789;28;20026;-89
2022/09/15 03:15:30;;;;;;;31.20;22.60;;;12.60;99.90;;;;;;5003977;28;20411;-91
2022/09/15 03:17:56;;;;;;;36.17;24.52;;;12.60;99.90;;;;;;5015530;28;20052;-90
2022/09/15 03:20:27;;;;;;;31.40;22.02;;;12.60;99.90;;;;;;4998000;28;20029;-91
2022/09/15 03:22:53;;;;;;;29.60;21.98;;;12.60;99.90;;;;;;5009034;28;20083;-90
2022/09/15 03:25:19;;;;;;;30.95;22.10;;;12.60;99.90;;;;;;4992963;28;20054;-90
2022/09/15 03:27:45;;;;;;;27.77;21.45;;;12.60;99.90;;;;;;4977249;28;20496;-90
2022/09/15 03:30:12;;;;;;;32.55;23.90;;;12.60;99.90;;;;;;4991548;28;20146;-88
2022/09/15 03:32:38;;;;;;;28.33;21.50;;;12.70;99.90;;;;;;4975384;28;20623;-87
2022/09/15 03:35:05;;;;;;;30.95;23.25;;;12.70;99.90;;;;;;4992331;28;20085;-87
2022/09/15 03:37:32;;;;;;;28.38;23.33;;;12.70;99.90;;;;;;4993387;28;20023;-87
2022/09/15 03:39:58;;;;;;;27.13;20.40;;;12.80;99.90;;;;;;4980513;28;20022;-86
2022/09/15 03:42:25;;;;;;;28.27;20.77;;;12.80;99.90;;;;;;4999669;28;20543;-88
2022/09/15 03:44:51;;;;;;;28.98;21.17;;;12.80;99.90;;;;;;4998166;28;20056;-87
2022/09/15 03:47:17;;;;;;;27.35;22.17;;;12.80;99.90;;;;;;4993370;28;20073;-87
2022/09/15 03:49:43;;;;;;;25.65;20.25;;;12.80;99.90;;;;;;4965252;28;20121;-88
2022/09/15 03:52:09;;;;;;;31.65;24.00;;;12.80;99.90;;;;;;4995666;28;20149;-87
2022/09/15 03:54:35;;;;;;;31.50;21.73;;;12.80;99.90;;;;;;4997445;28;20046;-87
2022/09/15 03:57:02;;;;;;;28.90;21.13;;;12.90;99.90;;;;;;5004484;28;20487;-87
2022/09/15 03:59:28;;;;;;;29.42;20.50;;;12.80;99.90;;;;;;5019146;28;20010;-88
2022/09/15 04:01:53;;;;;;;29.50;20.83;;;12.80;99.90;;;;;;5019096;28;20052;-90
2022/09/15 04:04:19;;;;;;;27.02;21.27;;;12.80;99.90;;;;;;5023685;28;20030;-93
2022/09/15 04:06:45;;;;;;;25.33;20.48;;;12.80;99.90;;;;;;5017260;28;20053;-93
2022/09/15 04:09:11;;;;;;;26.17;21.98;;;12.90;99.90;;;;;;5017704;28;20097;-95
2022/09/15 04:11:38;;;;;;;26.90;22.35;;;12.90;99.90;;;;;;5011037;28;20049;-92
2022/09/15 04:14:04;;;;;;;20.88;15.93;;;12.90;99.90;;;;;;5018416;28;20022;-88
2022/09/15 04:16:30;;;;;;;16.70;11.63;;;13.00;99.90;;;;;;5001070;28;20057;-88
2022/09/15 04:18:56;;;;;;;11.63;9.45;;;12.90;99.90;;;;;;5017411;28;20125;-88
2022/09/15 04:21:24;;;;;;;10.35;7.75;;;12.80;99.90;;;;;;5016222;28;20029;-88
2022/09/15 04:23:53;;;;;;;7.97;6.97;;;12.80;99.90;;;;;;5005049;28;20026;-89
2022/09/15 04:26:30;;;;;;;12.30;6.78;;;12.60;99.90;;;;;;5022812;28;20093;-88
2022/09/15 04:28:56;;;;;;;10.82;6.93;;;12.60;99.90;;;;;;5033246;28;20010;-88
2022/09/15 04:31:22;;;;;;;11.85;6.25;;;12.50;99.90;;;;;;5020373;28;20033;-89
2022/09/15 04:33:52;;;;;;;7.85;5.70;;;12.50;99.90;;;;;;5010257;28;20036;-89
2022/09/15 04:36:21;;;;;;;8.38;5.32;;;12.50;99.90;;;;;;5037300;28;20026;-89
2022/09/15 04:38:47;;;;;;;7.20;4.95;;;12.30;99.90;;;;;;5035903;28;20032;-89
2022/09/15 04:41:13;;;;;;;7.20;5.17;;;12.20;99.90;;;;;;5032392;28;20467;-89
2022/09/15 04:43:40;;;;;;;6.97;5.32;;;12.20;99.90;;;;;;5030612;28;20022;-88
2022/09/15 04:46:06;;;;;;;5.50;4.45;;;12.20;99.90;;;;;;5012869;28;20045;-88
2022/09/15 04:48:32;;;;;;;7.93;4.38;;;12.20;99.90;;;;;;5039248;28;20102;-88
2022/09/15 04:51:06;;;;;;;6.25;3.70;;;12.10;99.90;;;;;;5019555;28;20021;-86
2022/09/15 04:53:32;;;;;;;7.28;4.90;;;12.20;99.90;;;;;;5033104;28;20040;-87
2022/09/15 04:56:02;;;;;;;6.28;4.30;;;12.20;99.90;;;;;;5029253;28;20022;-88
2022/09/15 04:58:28;;;;;;;6.35;4.57;;;12.10;99.90;;;;;;5019383;28;20026;-89
2022/09/15 05:00:54;;;;;;;5.60;3.92;;;12.10;99.90;;;;;;5027034;28;20093;-88
2022/09/15 05:03:19;;;;;;;5.20;3.95;;;12.00;99.90;;;;;;5019453;28;20045;-89
2022/09/15 05:05:46;;;;;;;10.30;4.18;;;12.00;99.90;;;;;;5002715;28;20103;-90
2022/09/15 05:08:12;;;;;;;5.37;4.03;;;11.90;99.90;;;;;;5006500;28;20353;-90
2022/09/15 05:10:38;;;;;;;6.75;4.70;;;11.90;99.90;;;;;;5012057;28;20313;-89
2022/09/15 05:13:04;;;;;;;7.53;5.25;;;11.80;99.90;;;;;;5019950;28;20014;-89
2022/09/15 05:15:30;;;;;;;8.75;4.82;;;11.80;99.90;;;;;;5026974;28;20117;-90
2022/09/15 05:18:00;;;;;;;6.40;4.22;;;11.80;99.90;;;;;;5008651;28;20077;-91
2022/09/15 05:20:26;;;;;;;5.75;4.80;;;11.80;99.90;;;;;;5003034;28;20376;-89
2022/09/15 05:22:52;;;;;;;6.50;3.95;;;11.90;99.90;;;;;;5004222;28;20030;-90
2022/09/15 05:25:18;;;;;;;5.30;4.43;;;11.90;99.90;;;;;;5020821;28;20033;-91
2022/09/15 05:27:44;;;;;;;7.68;4.88;;;11.90;99.90;;;;;;5008955;28;20322;-91
2022/09/15 05:30:10;;;;;;;3.90;3.30;;;11.70;99.90;;;;;;5010483;28;20060;-90
2022/09/15 05:32:36;;;;;;;5.03;3.90;;;11.60;99.90;;;;;;5033470;28;20042;-90
2022/09/15 05:35:02;;;;;;;7.57;4.75;;;11.60;99.90;;;;;;5032757;28;20032;-93
2022/09/15 05:37:28;;;;;;;8.75;5.55;;;11.60;99.90;;;;;;5020284;28;20032;-90
2022/09/15 05:39:54;;;;;;;8.18;5.68;;;11.60;99.90;;;;;;5003415;28;20387;-90
2022/09/15 05:42:20;;;;;;;7.57;4.85;;;11.50;99.90;;;;;;5004304;28;20026;-87
2022/09/15 05:44:45;;;;;;;8.73;5.70;;;11.50;99.90;;;;;;5017129;28;20046;-88
2022/09/15 05:47:11;;;;;;;13.13;9.30;;;11.50;99.90;;;;;;4999209;28;20021;-90
2022/09/15 05:49:37;;;;;;;10.15;6.63;;;11.50;99.90;;;;;;4999760;28;20026;-89
2022/09/15 05:52:03;;;;;;;11.02;7.00;;;11.50;99.90;;;;;;5016906;28;20056;-90
2022/09/15 05:54:29;;;;;;;9.13;7.00;;;11.60;99.90;;;;;;5022734;28;20021;-89
2022/09/15 05:56:55;;;;;;;12.65;7.63;;;11.60;99.90;;;;;;5018666;28;20034;-89
2022/09/15 05:59:21;;;;;;;8.98;6.43;;;11.70;99.90;;;;;;5015992;28;20387;-88
2022/09/15 06:01:47;;;;;;;11.35;6.38;;;11.80;99.90;;;;;;4999624;28;20494;-90
2022/09/15 06:04:13;;;;;;;8.88;5.57;;;11.70;99.90;;;;;;5003526;28;20053;-90
2022/09/15 06:06:42;;;;;;;9.75;6.65;;;11.70;99.90;;;;;;5028118;28;20036;-90
2022/09/15 06:09:08;;;;;;;9.57;6.88;;;11.70;99.90;;;;;;5013180;28;20028;-90
2022/09/15 06:11:34;;;;;;;8.70;5.97;;;11.70;99.90;;;;;;5024301;28;20022;-86
2022/09/15 06:14:02;;;;;;;7.55;6.05;;;11.80;99.90;;;;;;5031064;28;20025;-88
2022/09/15 06:16:33;;;;;;;6.32;5.65;;;11.80;99.90;;;;;;4994910;28;20106;-89
2022/09/15 06:19:00;;;;;;;8.82;6.35;;;11.70;99.90;;;;;;5034300;28;20042;-89
2022/09/15 06:21:29;;;;;;;7.30;6.47;;;11.80;99.90;;;;;;5008741;28;20041;-89
2022/09/15 06:23:57;;;;;;;7.43;6.35;;;11.80;99.90;;;;;;5024360;28;20053;-87
2022/09/15 06:26:24;;;;;;;10.30;6.47;;;11.80;99.90;;;;;;5022260;28;20034;-90
2022/09/15 06:28:53;;;;;;;7.03;5.82;;;11.70;99.90;;;;;;5003993;28;20044;-86
2022/09/15 06:31:20;;;;;;;8.45;7.20;;;11.70;99.90;;;;;;5022752;28;20036;-87
2022/09/15 06:33:54;;;;;;;9.43;7.03;;;11.80;99.90;;;;;;5023394;28;20098;-87
2022/09/15 06:36:22;;;;;;;5.53;4.60;;;11.90;99.90;;;;;;5004939;28;20038;-88
2022/09/15 06:38:48;;;;;;;7.25;5.28;;;12.00;99.90;;;;;;5025496;28;20054;-84
2022/09/15 06:41:18;;;;;;;4.82;3.75;;;12.00;99.90;;;;;;5019132;28;20018;-88
2022/09/15 06:43:47;;;;;;;5.55;3.58;;;12.10;99.90;;;;;;5033337;28;20033;-91
2022/09/15 06:46:17;;;;;;;3.70;2.90;;;12.10;99.90;;;;;;5034432;28;20081;-92
2022/09/15 06:48:43;;;;;;;6.50;3.35;;;12.10;99.90;;;;;;5023125;28;20041;-88
2022/09/15 06:51:11;;;;;;;4.82;3.78;;;12.10;99.90;;;;;;5048853;28;19998;-87
2022/09/15 06:53:41;;;;;;;6.05;3.33;;;12.20;99.90;;;;;;5034133;28;20036;-88
2022/09/15 06:56:10;;;;;;;4.45;2.83;;;12.20;99.90;;;;;;5012372;28;20026;-89
2022/09/15 06:58:40;;;;;;;5.28;3.20;;;12.30;99.90;;;;;;5024394;28;20033;-89
2022/09/15 07:01:08;;;;;;;6.50;3.63;;;12.40;99.90;;;;;;5021511;28;20364;-89
2022/09/15 07:03:36;;;;;;;4.70;2.85;;;12.50;99.90;;;;;;5004802;28;20026;-88
2022/09/15 07:06:03;;;;;;;5.15;2.83;;;12.60;99.90;;;;;;5020805;28;20036;-90
2022/09/15 07:08:29;;;;;;;4.97;2.80;;;12.60;99.90;;;;;;5021665;28;20123;-91
2022/09/15 07:10:55;;;;;;;4.97;3.35;;;12.60;99.90;;;;;;5021506;28;20022;-90
2022/09/15 07:13:22;;;;;;;4.65;3.22;;;12.70;99.90;;;;;;5005788;28;20033;-89
2022/09/15 07:15:57;;;;;;;4.80;3.40;;;12.80;99.90;;;;;;4997402;28;20034;-90
2022/09/15 07:18:23;;;;;;;7.00;3.65;;;12.80;99.90;;;;;;5030734;28;20045;-89
2022/09/15 07:20:51;;;;;;;6.00;2.80;;;12.80;99.90;;;;;;5025084;28;20030;-88
2022/09/15 07:23:18;;;;;;;4.38;2.60;;;13.00;99.90;;;;;;5002551;28;20093;-88
2022/09/15 07:25:44;;;;;;;6.22;3.03;;;13.10;99.90;;;;;;4993451;28;20042;-88
2022/09/15 07:28:14;;;;;;;4.30;2.53;;;13.20;99.90;;;;;;5021923;28;20070;-89
2022/09/15 07:30:41;;;;;;;6.43;2.78;;;13.30;99.90;;;;;;5005755;28;20033;-89
2022/09/15 07:33:09;;;;;;;7.13;2.05;;;13.20;99.90;;;;;;4987777;28;20061;-88
2022/09/15 07:35:43;;;;;;;5.95;2.63;;;13.20;99.90;;;;;;5022051;28;20411;-88
2022/09/15 07:38:10;;;;;;;3.65;2.15;;;13.20;99.90;;;;;;5004181;28;20022;-87
2022/09/15 07:40:37;;;;;;;10.55;2.80;;;13.30;99.90;;;;;;5006143;28;20026;-89
2022/09/15 07:45:59;;;;;;;3.53;2.35;;;13.60;99.90;;;;;;5018346;28;20034;-90
2022/09/15 07:48:28;;;;;;;3.42;2.60;;;13.60;99.90;;;;;;5010509;28;20084;-90
2022/09/15 07:50:54;;;;;;;5.18;2.13;;;13.50;99.90;;;;;;5005831;28;20030;-91
2022/09/15 07:53:20;;;;;;;7.13;3.17;;;13.20;99.90;;;;;;5020150;28;20022;-89
2022/09/15 07:55:54;;;;;;;5.07;2.53;;;13.10;99.90;;;;;;5005036;28;20030;-88
2022/09/15 07:58:21;;;;;;;3.80;2.70;;;13.00;99.90;;;;;;5022261;28;20022;-90
2022/09/15 08:00:50;;;;;;;4.97;2.13;;;12.90;99.90;;;;;;5005879;28;20030;-88
2022/09/15 08:03:17;;;;;;;3.83;2.38;;;12.90;99.90;;;;;;5011308;28;20029;-89
2022/09/15 08:05:43;;;;;;;4.78;3.40;;;12.90;99.90;;;;;;5000141;28;20061;-89
2022/09/15 08:08:09;;;;;;;4.60;3.40;;;12.90;99.90;;;;;;5031303;28;20018;-89
2022/09/15 08:10:38;;;;;;;4.60;3.38;;;13.10;99.90;;;;;;5029360;28;20026;-88
2022/09/15 08:13:08;;;;;;;6.22;2.67;;;13.30;99.90;;;;;;5012087;28;20395;-88
2022/09/15 08:15:36;;;;;;;4.07;2.67;;;13.30;99.90;;;;;;5020980;28;20026;-89
2022/09/15 08:18:03;;;;;;;8.68;3.42;;;13.30;99.90;;;;;;5002933;28;20061;-88
2022/09/15 08:20:30;;;;;;;4.07;2.60;;;13.40;99.90;;;;;;5003591;28;20029;-90
2022/09/15 08:22:58;;;;;;;5.95;2.60;;;13.60;99.90;;;;;;4988359;28;20026;-88
2022/09/15 08:25:28;;;;;;;3.25;2.42;;;13.70;99.90;;;;;;4988119;28;20097;-90
2022/09/15 08:27:55;;;;;;;6.35;3.10;;;13.70;99.90;;;;;;4997550;28;20100;-89
2022/09/15 08:30:24;;;;;;;4.18;2.90;;;13.70;99.90;;;;;;5024323;28;20036;-89
2022/09/15 08:32:50;;;;;;;3.55;2.40;;;13.60;99.90;;;;;;5026806;28;20367;-88
2022/09/15 08:35:17;;;;;;;4.93;3.05;;;13.60;99.90;;;;;;5029004;28;20077;-90
2022/09/15 08:37:44;;;;;;;6.05;2.42;;;13.70;99.90;;;;;;5038323;28;20018;-89
2022/09/15 08:40:40;;;;;;;7.07;2.97;;;13.70;99.90;;;;;;5019965;28;20026;-87
2022/09/15 08:43:17;;;;;;;3.42;2.50;;;13.70;99.90;;;;;;5001394;28;20062;-88
2022/09/15 08:45:58;;;;;;;3.60;2.33;;;13.60;99.90;;;;;;5017294;28;20034;-89
2022/09/15 08:48:51;;;;;;;4.65;2.50;;;13.40;99.90;;;;;;5005016;28;20010;-89
2022/09/15 08:51:29;;;;;;;3.50;2.42;;;13.40;99.90;;;;;;4964487;29;20062;-88
2022/09/15 08:54:05;;;;;;;5.03;2.60;;;13.50;99.90;;;;;;4970238;29;20035;-88
2022/09/15 08:56:36;;;;;;;4.63;2.40;;;13.50;99.90;;;;;;4946788;29;20111;-90
2022/09/15 08:59:03;;;;;;;3.63;1.73;;;13.50;99.90;;;;;;4901325;29;20078;-90
2022/09/15 09:01:43;;;;;;;4.65;2.88;;;13.40;99.90;;;;;;4906465;29;20063;-90
2022/09/15 09:04:33;;;;;;;5.70;2.72;;;13.50;99.90;;;;;;4919837;29;20032;-90
2022/09/15 09:07:17;;;;;;;4.15;2.58;;;13.70;99.90;;;;;;4917756;29;20060;-92
2022/09/15 09:09:56;;;;;;;4.22;2.50;;;13.80;99.90;;;;;;4906960;29;20077;-91
2022/09/15 09:12:42;;;;;;;6.32;2.45;;;14.10;99.90;;;;;;4908844;29;20411;-89
2022/09/15 09:15:33;;;;;;;4.15;2.45;;;14.40;99.90;;;;;;4917078;29;20039;-92
2022/09/15 09:18:21;;;;;;;3.53;2.40;;;14.60;99.90;;;;;;4968416;28;20048;-89
2022/09/15 09:21:09;;;;;;;6.45;2.60;;;14.70;99.90;;;;;;4936687;29;20036;-91
2022/09/15 09:23:46;;;;;;;;;;;14.90;99.90;;;;;;4988820;28;20396;-89
2022/09/15 09:26:13;;;;;;;4.10;2.83;;;14.90;99.90;;;;;;5019291;28;19914;-92
2022/09/15 09:28:54;;;;;;;2.83;2.13;;;15.00;99.50;;;;;;5001844;28;20037;-91
2022/09/15 09:31:24;;;;;;;3.53;2.63;;;15.00;99.00;;;;;;4987964;28;20132;-90
2022/09/15 09:33:55;;;;;;;6.95;3.30;;;14.70;99.10;;;;;;4994154;28;20022;-90
2022/09/15 09:36:21;;;;;;;4.60;3.17;;;14.50;99.20;;;;;;5005931;28;20053;-91
2022/09/15 09:38:48;;;;;;;6.93;2.50;;;14.40;99.90;;;;;;4991938;28;20026;-90
2022/09/15 09:41:24;;;;;;;10.32;5.40;;;14.40;99.90;;;;;;5009832;28;20015;-88
2022/09/15 09:43:56;;;;;;;2.83;1.90;;;14.50;99.70;;;;;;5015144;28;20018;-89
2022/09/15 09:46:22;;;;;;;3.10;1.80;;;14.50;99.30;;;;;;5000789;28;20049;-91
2022/09/15 09:49:17;;;;;;;5.70;4.85;;;14.50;99.30;;;;;;5005848;28;20094;-91
2022/09/15 09:51:55;;;;;;;1.92;1.73;;;14.60;99.20;;;;;;4976118;28;20019;-90
2022/09/15 09:54:27;;;;;;;3.42;1.95;;;14.50;99.00;;;;;;5013801;28;20099;-89
2022/09/15 09:56:55;;;;;;;2.53;1.90;;;14.40;98.70;;;;;;5026770;28;20033;-92
2022/09/15 09:59:42;;;;;;;2.58;1.73;;;14.20;99.00;;;;;;5006287;28;20033;-91
2022/09/15 10:02:11;;;;;;;3.78;2.35;;;14.20;99.40;;;;;;5007255;28;20033;-89
2022/09/15 10:04:41;;;;;;;4.38;3.00;;;14.20;99.50;;;;;;5009445;28;20033;-91
2022/09/15 10:07:17;;;;;;;5.72;2.85;;;14.40;99.50;;;;;;5021510;28;20487;-87
2022/09/15 10:09:55;;;;;;;2.88;2.05;;;14.70;99.20;;;;;;5008549;28;20109;-89
2022/09/15 10:12:40;;;;;;;2.08;1.67;;;15.00;98.50;;;;;;4999115;28;20501;-92
2022/09/15 10:15:28;;;;;;;4.45;2.28;;;15.30;97.70;;;;;;4979649;28;20018;-91
2022/09/15 10:17:58;;;;;;;3.22;1.77;;;15.40;96.90;;;;;;4996678;28;20128;-91
2022/09/15 10:20:34;;;;;;;2.10;1.80;;;15.40;96.70;;;;;;5007457;28;20010;-89
2022/09/15 10:23:05;;;;;;;3.05;2.20;;;15.40;96.50;;;;;;5019600;28;20029;-88
2022/09/15 10:25:37;;;;;;;3.97;2.25;;;15.30;96.50;;;;;;5020529;28;20033;-88
2022/09/15 10:28:18;;;;;;;2.08;1.60;;;15.40;96.30;;;;;;5014211;28;20033;-89
2022/09/15 10:31:02;;;;;;;2.85;2.35;;;15.40;96.20;;;;;;5010023;28;20018;-88
2022/09/15 10:33:43;;;;;;;3.80;2.33;;;15.40;96.20;;;;;;5031571;28;20028;-90
2022/09/15 10:36:27;;;;;;;4.50;3.00;;;15.20;96.10;;;;;;5036469;28;20030;-89
2022/09/15 10:39:24;;;;;;;3.20;2.28;;;15.30;96.50;;;;;;5033503;28;20053;-90
2022/09/15 10:42:11;;;;;;;3.03;2.72;;;15.30;96.20;;;;;;5013373;28;20034;-90
2022/09/15 10:44:51;;;;;;;;;;;15.30;96.00;;;;;;5014052;28;20098;-87
2022/09/15 10:48:01;;;;;;;2.63;2.20;;;15.30;96.60;;;;;;5002706;28;19920;-91
2022/09/15 10:50:37;;;;;;;2.92;2.45;;;15.60;96.50;;;;;;4925998;29;20024;-90
2022/09/15 10:53:21;;;;;;;3.95;2.60;;;15.70;95.60;;;;;;5010181;28;20037;-92
2022/09/15 10:56:03;;;;;;;2.88;2.60;;;15.80;95.10;;;;;;5030972;28;20022;-91
2022/09/15 10:59:08;;;;;;;3.70;2.80;;;15.70;94.90;;;;;;5035634;28;20033;-90
2022/09/15 11:01:54;;;;;;;4.20;3.17;;;15.40;95.10;;;;;;4955410;29;20124;-91
2022/09/15 11:04:59;;;;;;;4.75;3.50;;;15.30;95.60;;;;;;4940344;29;20028;-91
2022/09/15 11:07:46;;;;;;;6.40;3.60;;;15.20;96.00;;;;;;4884897;29;20036;-91
2022/09/15 11:10:46;;;;;;;7.60;4.88;;;15.20;96.10;;;;;;4858126;29;20029;-89
2022/09/15 11:13:41;;;;;;;3.22;2.78;;;15.30;95.90;;;;;;4832109;29;20049;-91
2022/09/15 11:16:43;;;;;;;3.55;2.95;;;15.20;95.50;;;;;;4871031;29;20046;-91
2022/09/15 11:19:36;;;;;;;3.45;2.45;;;14.80;95.80;;;;;;4857115;29;20060;-91
2022/09/15 11:22:33;;;;;;;3.95;2.60;;;14.40;96.30;;;;;;4855958;29;20074;-91
2022/09/15 11:25:10;;;;;;;7.10;4.85;;;14.20;96.60;;;;;;4848073;29;20123;-92
2022/09/15 11:27:43;;;;;;;3.90;3.03;;;14.00;97.30;;;;;;4858238;29;20041;-91
2022/09/15 11:30:18;;;;;;;4.45;2.65;;;14.00;97.50;;;;;;4833596;29;20034;-91
2022/09/15 11:33:02;;;;;;;4.20;3.33;;;14.00;97.70;;;;;;4842340;29;20043;-90
2022/09/15 11:36:06;;;;;;;7.63;5.05;;;14.20;97.70;;;;;;4851501;29;20118;-91
2022/09/15 11:38:53;;;;;;;5.80;4.53;;;14.20;97.80;;;;;;4870307;29;20057;-90
2022/09/15 11:41:44;;;;;;;5.30;4.20;;;14.20;97.70;;;;;;4897744;29;20053;-91
2022/09/15 11:44:27;;;;;;;10.20;6.25;;;14.10;97.80;;;;;;4905524;29;20023;-90
2022/09/15 11:47:10;;;;;;;4.32;3.92;;;14.00;98.10;;;;;;4915328;29;20048;-91
2022/09/15 11:49:51;;;;;;;4.72;3.53;;;13.90;98.10;;;;;;4917084;29;20498;-91
2022/09/15 11:52:35;;;;;;;7.60;4.80;;;13.80;98.30;;;;;;4909137;29;20040;-89
2022/09/15 11:55:30;;;;;;;5.20;4.03;;;13.60;98.70;;;;;;4926928;28;20060;-91
2022/09/15 11:58:34;;;;;;;6.88;5.43;;;13.60;99.00;;;;;;4933788;29;20038;-93
2022/09/15 12:01:32;;;;;;;6.28;4.75;;;13.70;99.10;;;;;;4938593;29;20028;-91
2022/09/15 12:04:13;;;;;;;6.30;4.72;;;13.80;99.00;;;;;;4902661;29;20032;-91
2022/09/15 12:07:16;;;;;;;6.13;4.93;;;13.90;99.10;;;;;;4934882;29;20044;-91
2022/09/15 12:09:42;;;;;;;7.03;5.35;;;14.10;99.10;;;;;;4904413;29;20112;-90
2022/09/15 12:12:14;;;;;;;6.38;4.85;;;14.20;98.70;;;;;;4917652;29;20474;-90
2022/09/15 12:14:51;;;;;;;8.40;5.50;;;14.40;98.30;;;;;;4930094;28;20065;-91
2022/09/15 12:17:52;;;;;;;6.80;5.38;;;14.50;98.30;;;;;;4958779;28;20066;-90
2022/09/15 12:20:55;;;;;;;5.82;4.72;;;14.70;98.00;;;;;;4974279;28;20097;-89
2022/09/15 12:23:33;;;;;;;8.35;6.57;;;14.90;97.40;;;;;;4860842;29;20064;-90
2022/09/15 12:26:03;;;;;;;6.25;5.13;;;14.90;96.90;;;;;;4859517;29;20046;-91
2022/09/15 12:29:01;;;;;;;9.05;5.15;;;14.80;96.50;;;;;;4862423;29;20034;-90
2022/09/15 12:31:47;;;;;;;8.43;5.80;;;14.80;96.70;;;;;;4813399;29;20050;-87
2022/09/15 12:34:37;;;;;;;9.10;6.25;;;14.80;96.40;;;;;;4733670;30;20033;-90
2022/09/15 12:37:14;;;;;;;9.02;6.97;;;14.80;96.60;;;;;;4729920;30;20080;-90
2022/09/15 12:39:48;;;;;;;7.93;6.40;;;14.80;96.40;;;;;;4721086;30;20042;-89
2022/09/15 12:42:33;;;;;;;5.55;4.85;;;14.90;96.10;;;;;;4751515;30;20153;-91
2022/09/15 12:45:21;;;;;;;7.03;4.88;;;14.90;95.90;;;;;;4722813;30;20064;-89
2022/09/15 12:47:54;;;;;;;7.90;4.75;;;14.80;95.70;;;;;;4719752;30;20040;-91
2022/09/15 12:50:42;;;;;;;13.90;7.65;;;14.90;95.90;;;;;;4732204;30;20065;-90
2022/09/15 12:53:29;;;;;;;8.50;5.35;;;15.00;95.80;;;;;;4732757;30;20049;-89
2022/09/15 12:56:05;;;;;;;8.43;5.35;;;15.10;95.40;;;;;;4721153;30;20051;-90
2022/09/15 12:58:39;;;;;;;6.78;4.10;;;15.10;95.70;;;;;;4721586;30;20061;-91
2022/09/15 13:01:23;;;;;;;7.45;5.13;;;15.10;95.10;;;;;;4779997;29;20028;-91
2022/09/15 13:03:49;;;;;;;8.13;5.13;;;15.00;94.90;;;;;;4866356;29;20038;-91
2022/09/15 13:06:22;;;;;;;7.20;5.32;;;15.00;95.10;;;;;;4866431;29;20037;-89
2022/09/15 13:09:00;;;;;;;8.30;5.20;;;15.10;95.10;;;;;;4905741;29;20395;-90
2022/09/15 13:11:49;;;;;;;7.65;5.25;;;15.20;94.90;;;;;;4974457;28;20084;-91
2022/09/15 13:14:27;;;;;;;9.60;5.70;;;15.30;94.90;;;;;;5024986;28;20022;-90
2022/09/15 13:17:15;;;;;;;8.85;5.93;;;15.40;94.60;;;;;;4990892;28;20061;-91
2022/09/15 13:19:58;;;;;;;10.63;6.65;;;15.50;94.40;;;;;;5023063;28;20052;-90